Time;durP1;ratioP1;P1;durP2;ratioP2;P2;SDS_P1;SDS_P2;PMS_P1;PMS_P2;Temp;Humidity;BMP_temperature;BMP_pressure;BME280_temperature;BME280_humidity;BME280_pressure;Samples;Min_cycle;Max_cycle;Signal;HPM_P1;HPM_P2
2023/06/08 00:01:56;;;;;;;15.20;13.95;;;;;;;-141.84;76.36;20744.78;5089538;28;20242;-73
2023/06/08 00:04:29;;;;;;;16.67;15.18;;;;;;;-141.84;76.10;20797.63;5080725;28;20660;-74
2023/06/08 00:06:59;;;;;;;17.90;16.30;;;;;;;-141.84;76.79;20765.09;5092702;28;20605;-74
2023/06/08 00:09:28;;;;;;;17.73;15.23;;;;;;;-141.84;77.51;20728.50;5092735;28;20292;-74
2023/06/08 00:11:58;;;;;;;16.55;15.05;;;;;;;-141.84;78.31;20710.22;5092731;28;20196;-73
2023/06/08 00:14:28;;;;;;;16.52;15.02;;;;;;;-141.84;78.94;20693.94;5092662;28;20242;-74
2023/06/08 00:16:57;;;;;;;17.45;15.90;;;;;;;-141.84;80.12;20665.50;5073851;28;20226;-74
2023/06/08 00:19:25;;;;;;;17.20;15.80;;;;;;;-141.84;79.26;20708.19;5076852;28;20249;-74
2023/06/08 00:21:56;;;;;;;16.95;15.52;;;;;;;-141.84;79.38;20661.44;5092451;28;20203;-73
2023/06/08 00:24:24;;;;;;;18.00;16.50;;;;;;;-141.84;81.53;20661.44;5092385;28;20647;-75
2023/06/08 00:26:53;;;;;;;19.23;17.48;;;;;;;-141.84;82.21;20641.09;5089970;28;20203;-73
2023/06/08 00:29:22;;;;;;;18.30;16.80;;;;;;;-141.84;83.40;20610.59;5092265;28;20788;-75
2023/06/08 00:31:52;;;;;;;18.40;16.90;;;;;;;-141.84;84.42;20596.38;5092218;28;20220;-74
2023/06/08 00:34:21;;;;;;;17.60;16.05;;;;;;;-141.84;84.60;20635.00;5096840;28;20287;-73
2023/06/08 00:36:50;;;;;;;18.73;17.02;;;;;;;-141.84;84.21;20647.19;5101492;28;20232;-73
2023/06/08 00:39:19;;;;;;;19.08;17.42;;;;;;;-141.84;84.76;20600.44;5064153;28;20253;-71
2023/06/08 00:41:47;;;;;;;18.77;17.20;;;;;;;-141.84;85.58;20602.47;5092718;28;20286;-73
2023/06/08 00:44:16;;;;;;;18.55;17.15;;;;;;;-141.84;85.77;20618.72;5091867;28;20611;-73
2023/06/08 00:46:45;;;;;;;18.63;16.98;;;;;;;-141.84;84.99;20622.81;5091912;28;20235;-73
2023/06/08 00:49:17;;;;;;;18.67;17.17;;;;;;;-141.84;84.92;20635.00;5091891;28;20196;-73
2023/06/08 00:51:47;;;;;;;19.45;17.77;;;;;;;-141.84;85.20;20608.56;5091824;28;20727;-74
2023/06/08 00:54:16;;;;;;;18.27;16.83;;;;;;;-141.84;84.88;20639.06;5091580;28;20253;-74
2023/06/08 00:56:48;;;;;;;18.27;16.77;;;;;;;-141.84;84.39;20641.09;5091764;28;20204;-74
2023/06/08 00:59:17;;;;;;;19.98;18.38;;;;;;;-141.84;84.57;20618.72;5092247;28;20230;-73
2023/06/08 01:01:47;;;;;;;20.27;18.50;;;;;;;-141.84;84.33;20602.47;5087221;28;20204;-73
2023/06/08 01:04:17;;;;;;;19.50;17.73;;;;;;;-141.84;84.17;20608.56;5091436;28;20667;-74
2023/06/08 01:06:48;;;;;;;19.30;17.75;;;;;;;-141.84;84.03;20639.06;5091684;28;20573;-73
2023/06/08 01:09:25;;;;;;;20.20;18.52;;;;;;;-141.84;84.60;20630.94;5071382;28;20280;-76
2023/06/08 01:12:05;;;;;;;19.98;18.27;;;;;;;-141.84;85.55;20596.38;5071526;28;20254;-73
2023/06/08 01:14:43;;;;;;;19.17;17.58;;;;;;;-141.84;85.01;20618.72;5071063;28;20691;-73
2023/06/08 01:17:15;;;;;;;20.70;18.92;;;;;;;-141.84;86.07;20569.94;5071204;28;20759;-74
2023/06/08 01:20:08;;;;;;;21.52;19.77;;;;;;;-141.84;87.35;20515.06;5077853;28;20192;-73
2023/06/08 01:22:56;;;;;;;20.80;19.02;;;;;;;-141.84;88.10;20563.84;5091636;28;20216;-74
2023/06/08 01:25:29;;;;;;;21.50;19.70;;;;;;;-141.84;88.53;20569.94;5091527;28;20192;-74
2023/06/08 01:28:11;;;;;;;21.88;19.88;;;;;;;-141.84;89.48;20529.28;5091537;28;20197;-73
2023/06/08 01:30:41;;;;;;;22.52;20.70;;;;;;;-141.84;89.27;20555.72;5091354;28;20184;-74
2023/06/08 01:33:13;;;;;;;21.67;19.77;;;;;;;-141.84;89.94;20494.75;5073949;28;20251;-73
2023/06/08 01:35:42;;;;;;;23.40;21.40;;;;;;;-141.84;90.80;20508.97;5071781;28;20185;-74
2023/06/08 01:38:17;;;;;;;22.15;20.35;;;;;;;-141.84;91.28;20496.78;5070741;28;20684;-73
2023/06/08 01:40:52;;;;;;;24.35;22.00;;;;;;;-141.84;91.72;20472.38;5070623;28;20747;-73
2023/06/08 01:43:23;;;;;;;23.27;21.17;;;;;;;-141.84;91.51;20454.09;5071125;28;20307;-72
2023/06/08 01:45:57;;;;;;;23.60;21.60;;;;;;;-141.84;91.19;20480.50;5070932;28;20242;-74
2023/06/08 01:48:27;;;;;;;24.88;22.88;;;;;;;-141.84;91.21;20490.66;5070815;28;20442;-74
2023/06/08 01:50:56;;;;;;;24.45;22.35;;;;;;;-141.84;90.83;20470.34;5070324;28;20694;-74
2023/06/08 01:53:24;;;;;;;23.90;21.90;;;;;;;-141.84;91.19;20423.59;5070465;28;20660;-73
2023/06/08 01:55:54;;;;;;;26.05;23.85;;;;;;;-141.84;91.19;20466.28;5070971;28;20285;-74
2023/06/08 01:58:23;;;;;;;25.33;23.05;;;;;;;-141.84;91.88;20429.69;5091155;28;20297;-73
2023/06/08 02:00:51;;;;;;;23.65;21.52;;;;;;;-141.84;92.28;20413.44;5090761;28;20295;-72
2023/06/08 02:03:20;;;;;;;24.88;22.80;;;;;;;-141.84;92.51;20447.97;5086549;28;20245;-74
2023/06/08 02:05:48;;;;;;;24.90;22.85;;;;;;;-141.84;92.61;20427.66;5091089;28;20192;-73
2023/06/08 02:08:17;;;;;;;25.85;23.75;;;;;;;-141.84;92.84;20417.50;5081937;28;20679;-73
2023/06/08 02:10:45;;;;;;;25.73;23.55;;;;;;;-141.84;92.26;20464.25;5070685;28;20228;-74
2023/06/08 02:13:15;;;;;;;24.48;22.27;;;;;;;-141.84;92.26;20439.84;5070450;28;20687;-74
2023/06/08 02:15:44;;;;;;;25.63;23.38;;;;;;;-141.84;92.52;20411.41;5069822;28;20201;-73
2023/06/08 02:18:13;;;;;;;26.00;23.70;;;;;;;-141.84;92.76;20413.44;5070625;28;20397;-74
2023/06/08 02:20:41;;;;;;;26.10;23.98;;;;;;;-141.84;92.93;20403.25;5089045;28;20259;-73
2023/06/08 02:23:10;;;;;;;26.83;24.42;;;;;;;-141.84;93.07;20425.63;5090731;28;20239;-73
2023/06/08 02:25:38;;;;;;;27.38;25.08;;;;;;;-141.84;92.75;20431.72;5090551;28;20698;-74
2023/06/08 02:28:07;;;;;;;25.92;23.75;;;;;;;-141.84;92.78;20409.38;5090417;28;20200;-74
2023/06/08 02:30:37;;;;;;;26.80;24.58;;;;;;;-141.84;92.69;20407.34;5090307;28;20231;-73
2023/06/08 02:33:06;;;;;;;27.15;24.50;;;;;;;-141.84;92.84;20415.47;5090471;28;20222;-73
2023/06/08 02:35:35;;;;;;;26.63;24.50;;;;;;;-141.84;93.04;20350.41;5090906;28;20196;-74
2023/06/08 02:38:03;;;;;;;27.58;25.08;;;;;;;-141.84;93.12;20413.44;5090715;28;20196;-75
2023/06/08 02:40:32;;;;;;;27.27;24.98;;;;;;;-141.84;93.12;20407.34;5091116;28;20235;-73
2023/06/08 02:43:00;;;;;;;28.30;25.90;;;;;;;-141.84;93.40;20421.56;5091073;28;20255;-75
2023/06/08 02:45:29;;;;;;;27.33;24.92;;;;;;;-141.84;93.33;20395.13;5090585;28;20259;-73
2023/06/08 02:47:58;;;;;;;26.77;24.25;;;;;;;-141.84;93.40;20401.22;5091726;28;20214;-73
2023/06/08 02:50:27;;;;;;;27.55;24.95;;;;;;;-141.84;93.44;20415.47;5091733;28;20236;-75
2023/06/08 02:52:56;;;;;;;26.52;24.33;;;;;;;-141.84;93.81;20407.34;5091560;28;20839;-75
2023/06/08 02:55:24;;;;;;;27.13;24.83;;;;;;;-141.84;93.86;20352.44;5092303;28;20260;-74
2023/06/08 02:57:52;;;;;;;26.42;24.25;;;;;;;-141.84;94.04;20382.94;5091737;28;20239;-74
2023/06/08 03:00:21;;;;;;;27.90;25.55;;;;;;;-141.84;93.94;20378.88;5090853;28;20326;-74
2023/06/08 03:02:49;;;;;;;27.30;24.90;;;;;;;-141.84;93.99;20397.16;5086724;28;20208;-74
2023/06/08 03:05:20;;;;;;;29.05;26.63;;;;;;;-141.84;93.81;20403.25;5077203;28;20227;-74
2023/06/08 03:07:49;;;;;;;28.75;26.08;;;;;;;-141.84;93.20;20433.75;5090458;28;20592;-74
2023/06/08 03:10:18;;;;;;;26.33;24.13;;;;;;;-141.84;92.67;20415.47;5090912;28;20299;-73
2023/06/08 03:12:46;;;;;;;25.65;23.45;;;;;;;-141.84;92.37;20378.88;5091335;28;20208;-75
2023/06/08 03:15:22;;;;;;;27.63;25.30;;;;;;;-141.84;91.93;20447.97;5091205;28;20287;-73
2023/06/08 03:17:51;;;;;;;26.60;24.30;;;;;;;-141.84;90.73;20464.25;5090995;28;20242;-75
2023/06/08 03:20:21;;;;;;;26.40;24.20;;;;;;;-141.84;90.25;20431.72;5093125;28;20206;-74
2023/06/08 03:22:51;;;;;;;28.00;25.60;;;;;;;-141.84;90.49;20460.19;5092163;28;20295;-73
2023/06/08 03:25:21;;;;;;;25.63;23.42;;;;;;;-141.84;90.67;20464.25;5081696;28;20712;-73
2023/06/08 03:27:49;;;;;;;24.67;22.63;;;;;;;-141.84;91.30;20447.97;5086828;28;20219;-74
2023/06/08 03:30:18;;;;;;;26.30;24.00;;;;;;;-141.84;91.80;20421.56;5095498;28;20207;-76
2023/06/08 03:32:48;;;;;;;28.35;25.58;;;;;;;-141.84;91.64;20447.97;5098753;28;20630;-73
2023/06/08 03:35:17;;;;;;;28.10;25.67;;;;;;;-141.84;90.59;20425.63;5095419;28;20203;-74
2023/06/08 03:37:47;;;;;;;25.92;23.50;;;;;;;-141.84;88.31;20454.09;5094401;28;20739;-73
2023/06/08 03:40:16;;;;;;;23.25;21.25;;;;;;;-141.84;85.66;20523.19;5094579;28;20230;-73
2023/06/08 03:42:44;;;;;;;23.25;21.20;;;;;;;-141.84;84.32;20531.31;5094769;28;20302;-73
2023/06/08 03:45:13;;;;;;;23.65;21.48;;;;;;;-141.84;84.29;20517.09;5095453;28;20650;-72
2023/06/08 03:47:41;;;;;;;20.75;18.98;;;;;;;-141.84;83.89;20531.31;5095404;28;20281;-73
2023/06/08 03:50:11;;;;;;;21.30;19.50;;;;;;;-141.84;83.78;20547.59;5096170;28;20231;-72
2023/06/08 03:52:40;;;;;;;19.35;17.55;;;;;;;-141.84;83.29;20515.06;5094901;28;20231;-74
2023/06/08 03:55:11;;;;;;;18.65;16.95;;;;;;;-141.84;83.16;20521.16;5096024;28;20223;-74
2023/06/08 03:57:40;;;;;;;19.75;18.02;;;;;;;-141.84;82.36;20569.94;5096363;28;20195;-75
2023/06/08 04:00:11;;;;;;;20.98;19.05;;;;;;;-141.84;81.39;20596.38;5095871;28;20642;-74
2023/06/08 04:02:40;;;;;;;20.52;18.77;;;;;;;-141.84;80.02;20586.22;5095477;28;20624;-73
2023/06/08 04:05:09;;;;;;;19.10;17.40;;;;;;;-141.84;79.38;20639.06;5095583;28;20229;-73
2023/06/08 04:07:38;;;;;;;19.52;17.83;;;;;;;-141.84;78.99;20630.94;5103173;28;20556;-72
2023/06/08 04:10:09;;;;;;;19.15;17.55;;;;;;;-141.84;78.34;20661.44;5097846;28;20196;-74
2023/06/08 04:12:38;;;;;;;18.50;16.85;;;;;;;-141.84;78.05;20641.09;5095842;28;20197;-74
2023/06/08 04:15:08;;;;;;;18.25;16.73;;;;;;;-141.84;76.95;20683.78;5095594;28;20254;-73
2023/06/08 04:17:36;;;;;;;18.35;16.75;;;;;;;-141.84;77.75;20645.16;5096160;28;20697;-74
2023/06/08 04:20:06;;;;;;;19.50;17.83;;;;;;;-141.84;77.45;20685.81;5094635;28;20192;-73
2023/06/08 04:22:34;;;;;;;19.52;17.83;;;;;;;-141.84;78.08;20655.31;5076297;28;20204;-74
2023/06/08 04:25:05;;;;;;;19.52;17.83;;;;;;;-141.84;77.58;20695.97;5074955;28;20212;-75
2023/06/08 04:27:35;;;;;;;18.98;17.38;;;;;;;-141.84;78.10;20643.13;5084358;28;20192;-58
2023/06/08 04:30:04;;;;;;;18.60;17.00;;;;;;;-141.84;78.55;20675.66;5092393;28;20725;-59
2023/06/08 04:32:33;;;;;;;17.00;15.55;;;;;;;-141.84;78.87;20657.34;5092457;28;20204;-58
2023/06/08 04:35:03;;;;;;;17.83;16.42;;;;;;;-141.84;78.66;20687.84;5092660;28;20196;-57
2023/06/08 04:37:33;;;;;;;19.77;18.05;;;;;;;-141.84;76.92;20706.16;5056882;28;20204;-58
2023/06/08 04:40:04;;;;;;;19.92;18.13;;;;;;;-141.84;76.40;20744.78;5092504;28;20231;-58
2023/06/08 04:42:34;;;;;;;19.77;17.98;;;;;;;-141.84;77.45;20720.38;5092640;28;20260;-57
2023/06/08 04:45:05;;;;;;;18.85;17.17;;;;;;;-141.84;77.45;20689.88;5092401;28;20546;-58
2023/06/08 04:47:35;;;;;;;18.83;17.10;;;;;;;-141.84;77.04;20710.22;5092730;28;20216;-58
2023/06/08 04:50:05;;;;;;;16.95;15.45;;;;;;;-141.84;77.28;20695.97;5092516;28;20266;-58
2023/06/08 04:52:37;;;;;;;17.80;16.20;;;;;;;-141.84;78.18;20681.75;5092097;28;20627;-58
2023/06/08 04:55:06;;;;;;;18.33;16.70;;;;;;;-141.84;78.83;20659.38;5092440;28;20272;-59
2023/06/08 04:57:35;;;;;;;17.52;16.08;;;;;;;-141.84;78.62;20693.94;5078928;28;20235;-58
2023/06/08 05:00:09;;;;;;;18.10;16.42;;;;;;;-141.84;79.09;20673.63;5072076;28;20319;-59
2023/06/08 05:02:38;;;;;;;15.80;14.50;;;;;;;-141.84;79.89;20679.72;5046612;28;20243;-60
2023/06/08 05:05:08;;;;;;;17.50;16.10;;;;;;;-141.84;80.39;20691.91;5092137;28;20200;-58
2023/06/08 05:07:36;;;;;;;18.38;16.77;;;;;;;-141.84;80.85;20671.59;5091734;28;20222;-59
2023/06/08 05:10:06;;;;;;;18.55;16.85;;;;;;;-141.84;80.87;20671.59;5092261;28;20207;-58
2023/06/08 05:12:34;;;;;;;19.20;17.55;;;;;;;-141.84;80.49;20687.84;5092279;28;20210;-59
2023/06/08 05:15:05;;;;;;;16.58;15.10;;;;;;;-141.84;81.24;20637.03;5073056;28;20543;-75
2023/06/08 05:17:34;;;;;;;18.15;16.48;;;;;;;-141.84;81.05;20653.28;5095444;28;20244;-73
2023/06/08 05:20:03;;;;;;;17.05;15.55;;;;;;;-141.84;81.72;20661.44;5095037;28;20667;-75
2023/06/08 05:22:32;;;;;;;19.23;17.42;;;;;;;-141.84;82.00;20665.50;5094438;28;20207;-75
2023/06/08 05:25:01;;;;;;;19.52;17.92;;;;;;;-141.84;81.87;20663.47;5094000;28;20202;-74
2023/06/08 05:27:29;;;;;;;17.10;15.60;;;;;;;-141.84;81.56;20649.22;5093946;28;20252;-75
2023/06/08 05:29:58;;;;;;;17.60;16.00;;;;;;;-141.84;81.90;20675.66;5095301;28;20256;-74
2023/06/08 05:32:30;;;;;;;17.20;15.75;;;;;;;-141.84;81.80;20671.59;5082762;28;20231;-74
2023/06/08 05:35:00;;;;;;;15.45;13.98;;;;;;;-141.84;81.36;20685.81;5074880;28;20199;-73
2023/06/08 05:37:28;;;;;;;17.98;16.33;;;;;;;-141.84;80.61;20722.41;5074717;28;20225;-74
2023/06/08 05:39:57;;;;;;;14.60;13.35;;;;;;;-141.84;80.65;20683.78;5073530;28;20201;-75
2023/06/08 05:42:26;;;;;;;15.27;13.95;;;;;;;-141.84;80.85;20722.41;5073409;28;20286;-73
2023/06/08 05:44:54;;;;;;;14.65;13.45;;;;;;;-141.84;80.32;20732.56;5072443;28;20232;-74
2023/06/08 05:47:22;;;;;;;16.42;15.13;;;;;;;-141.84;79.45;20775.25;5071718;28;20227;-57
2023/06/08 05:49:57;;;;;;;16.63;15.13;;;;;;;-141.84;75.30;20858.59;5070429;28;20260;-58
2023/06/08 05:52:26;;;;;;;16.77;15.15;;;;;;;-141.84;72.97;20929.75;5071289;28;20248;-59
2023/06/08 05:54:54;;;;;;;14.68;13.48;;;;;;;-141.84;72.36;20966.34;5070904;28;20203;-59
2023/06/08 05:57:23;;;;;;;15.43;13.82;;;;;;;-141.84;72.76;20941.97;5063829;28;20668;-59
2023/06/08 05:59:51;;;;;;;14.50;13.20;;;;;;;-141.84;72.91;20978.56;5071035;28;20741;-59
2023/06/08 06:02:20;;;;;;;17.30;15.73;;;;;;;-141.84;72.39;21004.97;5078013;28;20671;-59
2023/06/08 06:04:49;;;;;;;14.45;13.23;;;;;;;-141.84;72.62;20984.66;5091966;28;20211;-58
2023/06/08 06:07:19;;;;;;;16.20;14.75;;;;;;;-141.84;71.35;21039.53;5092576;28;20236;-58
2023/06/08 06:09:48;;;;;;;15.02;13.82;;;;;;;-141.84;71.34;21027.34;5092348;28;20230;-58
2023/06/08 06:12:16;;;;;;;16.48;15.05;;;;;;;-141.84;70.82;21059.88;5092214;28;20307;-59
2023/06/08 06:14:45;;;;;;;16.45;14.77;;;;;;;-141.84;70.69;21041.56;5092086;28;20267;-58
2023/06/08 06:17:15;;;;;;;13.30;11.98;;;;;;;-141.84;71.08;21027.34;5091757;28;20227;-59
2023/06/08 06:19:44;;;;;;;13.63;12.55;;;;;;;-141.84;71.27;20998.88;5091534;28;20261;-59
2023/06/08 06:22:13;;;;;;;12.77;11.70;;;;;;;-141.84;71.60;20939.94;5091357;28;20218;-58
2023/06/08 06:24:43;;;;;;;15.38;13.88;;;;;;;-141.84;71.00;21002.94;5092743;28;20239;-58
2023/06/08 06:27:12;;;;;;;13.80;12.70;;;;;;;-141.84;71.74;20976.53;5092764;28;20302;-58
2023/06/08 06:29:40;;;;;;;13.10;12.00;;;;;;;-141.84;71.62;20996.84;5091543;28;20231;-58
2023/06/08 06:32:09;;;;;;;14.05;12.60;;;;;;;-141.84;71.24;21002.94;5082407;28;20300;-57
2023/06/08 06:34:39;;;;;;;14.20;13.07;;;;;;;-141.84;70.61;20990.75;5073081;28;20215;-57
2023/06/08 06:37:07;;;;;;;15.38;14.10;;;;;;;-141.84;68.95;21021.25;5072636;28;20478;-58
2023/06/08 06:39:36;;;;;;;13.50;12.25;;;;;;;-141.84;69.95;21009.03;5070984;28;20240;-57
2023/06/08 06:42:06;;;;;;;15.73;14.27;;;;;;;-141.84;70.52;20970.41;5070928;28;20200;-58
2023/06/08 06:44:35;;;;;;;15.40;13.70;;;;;;;-141.84;70.41;20980.59;5075408;28;20244;-60
2023/06/08 06:47:04;;;;;;;13.80;12.45;;;;;;;-141.84;70.45;20974.50;5070287;28;20274;-58
2023/06/08 06:49:33;;;;;;;16.00;14.30;;;;;;;-141.84;70.11;20946.03;5090144;28;20258;-58
2023/06/08 06:52:01;;;;;;;14.20;12.90;;;;;;;-141.84;70.03;20960.25;5090553;28;20271;-59
2023/06/08 06:54:32;;;;;;;12.98;11.88;;;;;;;-141.84;70.56;20964.31;5074626;28;20226;-57
2023/06/08 06:57:00;;;;;;;14.00;12.45;;;;;;;-141.84;70.41;20966.34;5070332;28;20197;-58
2023/06/08 06:59:30;;;;;;;13.40;12.20;;;;;;;-141.84;70.20;20960.25;5070339;28;20292;-60
2023/06/08 07:01:59;;;;;;;12.18;11.10;;;;;;;-141.84;70.33;20964.31;5085949;28;20192;-60
2023/06/08 07:04:28;;;;;;;12.60;11.35;;;;;;;-141.84;70.35;21023.28;5093847;28;20200;-59
2023/06/08 07:06:56;;;;;;;17.33;13.70;;;;;;;-141.84;67.89;21045.63;5093768;28;20691;-59
2023/06/08 07:09:25;;;;;;;12.38;11.20;;;;;;;-141.84;68.26;21009.03;5094092;28;20694;-60
2023/06/08 07:11:54;;;;;;;14.40;13.00;;;;;;;-141.84;67.59;21004.97;5093818;28;20204;-59
2023/06/08 07:14:44;;;;;;;13.25;12.10;;;;;;;-141.84;66.63;21084.28;5094011;28;20267;-59
2023/06/08 07:17:12;;;;;;;12.82;11.52;;;;;;;-141.84;67.19;21033.44;5094072;28;20207;-60
2023/06/08 07:19:42;;;;;;;12.90;11.70;;;;;;;-141.84;66.91;21025.31;5093446;28;20597;-60
2023/06/08 07:22:11;;;;;;;13.93;11.48;;;;;;;-141.84;66.03;21061.91;5093530;28;20286;-59
2023/06/08 07:24:59;;;;;;;14.20;12.63;;;;;;;-141.84;64.09;21092.41;5093565;28;20215;-59
2023/06/08 07:27:48;;;;;;;14.07;12.90;;;;;;;-141.84;64.69;21041.56;5092981;28;20465;-59
2023/06/08 07:30:18;;;;;;;13.30;12.10;;;;;;;-141.84;64.50;21078.16;5094221;28;20295;-60
2023/06/08 07:32:46;;;;;;;12.35;11.35;;;;;;;-141.84;63.79;21106.63;5093107;28;20208;-58
2023/06/08 07:35:15;;;;;;;14.35;12.95;;;;;;;-141.84;64.97;21092.41;5093164;28;20208;-59
2023/06/08 07:37:43;;;;;;;13.50;12.20;;;;;;;-141.84;64.79;21118.84;5092773;28;20721;-58
2023/06/08 07:40:12;;;;;;;12.52;11.40;;;;;;;-141.84;65.28;21098.50;5092955;28;20727;-59
2023/06/08 07:42:42;;;;;;;13.38;12.05;;;;;;;-141.84;65.14;21135.09;5092884;28;20580;-59
2023/06/08 07:45:11;;;;;;;12.85;11.73;;;;;;;-141.84;65.21;21147.28;5088990;28;20432;-59
2023/06/08 07:47:42;;;;;;;12.98;11.88;;;;;;;-141.84;65.40;21208.28;5072811;28;20315;-60
2023/06/08 07:50:11;;;;;;;13.05;11.75;;;;;;;-141.84;64.97;21161.53;5072559;28;20236;-59
2023/06/08 07:52:41;;;;;;;13.60;12.40;;;;;;;-141.84;63.80;21212.34;5079362;28;20196;-59
2023/06/08 07:55:14;;;;;;;13.63;12.32;;;;;;;-141.84;63.66;21198.13;5080834;28;20205;-59
2023/06/08 07:57:44;;;;;;;13.20;11.90;;;;;;;-141.84;63.30;21263.19;5086897;28;20287;-59
2023/06/08 08:00:13;;;;;;;12.25;10.95;;;;;;;-141.84;63.75;21238.78;5093032;28;20185;-59
2023/06/08 08:02:44;;;;;;;12.07;11.07;;;;;;;-141.84;63.43;21257.09;5088830;28;20269;-58
2023/06/08 08:05:13;;;;;;;11.90;10.57;;;;;;;-141.84;62.22;21275.38;5093570;28;20203;-59
2023/06/08 08:07:42;;;;;;;11.95;10.77;;;;;;;-141.84;62.54;21281.47;5092614;28;20248;-58
2023/06/08 08:10:11;;;;;;;11.52;10.43;;;;;;;-141.84;61.82;21350.59;5093504;28;20282;-77
2023/06/08 08:12:39;;;;;;;10.48;9.57;;;;;;;-141.84;60.80;21385.16;5092537;28;20235;-75
2023/06/08 08:15:08;;;;;;;12.10;10.90;;;;;;;-141.84;60.35;21391.28;5092727;28;20204;-75
2023/06/08 08:17:37;;;;;;;12.63;11.43;;;;;;;-141.84;59.88;21395.34;5092471;28;20287;-75
2023/06/08 08:20:09;;;;;;;13.18;11.80;;;;;;;-141.84;59.29;21419.72;5092824;28;20192;-76
2023/06/08 08:22:38;;;;;;;13.23;10.85;;;;;;;-141.84;60.16;21456.34;5092477;28;20188;-75
2023/06/08 08:25:07;;;;;;;10.90;10.00;;;;;;;-141.84;59.52;21513.25;5092637;28;20273;-77
2023/06/08 08:27:36;;;;;;;10.70;9.60;;;;;;;-141.84;58.89;21578.31;5092211;28;20242;-75
2023/06/08 08:30:06;;;;;;;12.25;11.15;;;;;;;-141.84;56.63;21631.19;5088262;28;20672;-77
2023/06/08 08:32:34;;;;;;;11.25;10.25;;;;;;;-141.84;57.45;21604.75;5070916;28;20203;-75
2023/06/08 08:35:03;;;;;;;10.68;9.68;;;;;;;-141.84;58.25;21590.53;5072071;28;20772;-77
2023/06/08 08:37:33;;;;;;;10.60;9.50;;;;;;;-141.84;58.23;21643.38;5071379;28;20283;-77
2023/06/08 08:40:02;;;;;;;11.20;10.07;;;;;;;-141.84;57.06;21588.50;5070710;28;20785;-75
2023/06/08 08:42:33;;;;;;;10.98;9.98;;;;;;;-141.84;57.03;21657.63;5071283;28;20208;-75
2023/06/08 08:45:07;;;;;;;11.02;10.02;;;;;;;-141.84;55.86;21669.81;5071840;28;20197;-75
2023/06/08 08:47:35;;;;;;;9.30;8.40;;;;;;;-141.84;55.50;21649.50;5071713;28;20292;-76
2023/06/08 08:50:06;;;;;;;11.50;10.40;;;;;;;-141.84;53.77;21694.22;5071646;28;20320;-76
2023/06/08 08:52:41;;;;;;;12.00;10.43;;;;;;;-141.84;56.04;21610.84;5074561;28;20220;-75
2023/06/08 08:55:10;;;;;;;11.57;10.15;;;;;;;-141.84;56.04;21669.81;5091709;28;20184;-76
2023/06/08 08:57:53;;;;;;;11.85;10.70;;;;;;;-141.84;56.89;21610.84;5091566;28;20189;-76
2023/06/08 09:00:22;;;;;;;10.80;9.82;;;;;;;-141.84;57.27;21651.53;5092151;28;20204;-75
2023/06/08 09:02:52;;;;;;;11.35;10.25;;;;;;;-141.84;56.22;21702.34;5087644;28;20503;-76
2023/06/08 09:05:21;;;;;;;12.65;11.52;;;;;;;-141.84;54.74;21702.34;5091874;28;20208;-75
2023/06/08 09:07:54;;;;;;;11.20;10.10;;;;;;;-141.84;55.21;21741.00;5091509;28;20248;-75
2023/06/08 09:10:25;;;;;;;12.05;10.85;;;;;;;-141.84;54.39;21745.06;5091918;28;20184;-75
2023/06/08 09:12:56;;;;;;;11.10;10.20;;;;;;;-141.84;54.67;21761.31;5091966;28;20185;-77
2023/06/08 09:15:28;;;;;;;11.85;10.85;;;;;;;-141.84;54.37;21745.06;5091821;28;20200;-76
2023/06/08 09:17:58;;;;;;;10.75;9.85;;;;;;;-141.84;55.71;21730.81;5091313;28;20181;-76
2023/06/08 09:20:31;;;;;;;12.18;11.07;;;;;;;-141.84;56.17;21720.66;5091489;28;20223;-75
2023/06/08 09:23:15;;;;;;;11.07;9.98;;;;;;;-141.84;55.32;21734.88;5091503;28;20196;-75
2023/06/08 09:25:46;;;;;;;11.98;10.98;;;;;;;-141.84;54.93;21667.78;5091576;28;20235;-77
2023/06/08 09:28:22;;;;;;;12.63;10.05;;;;;;;-141.84;56.47;21598.66;5073916;28;20220;-76
2023/06/08 09:30:50;;;;;;;11.00;9.98;;;;;;;-141.84;58.21;21568.16;5070743;28;20224;-75
2023/06/08 09:33:21;;;;;;;11.02;10.13;;;;;;;-141.84;60.19;21519.34;5089863;28;20358;-75
2023/06/08 09:36:04;;;;;;;12.15;10.60;;;;;;;-141.84;60.11;21387.19;5091296;28;20634;-76
2023/06/08 09:38:35;;;;;;;12.65;11.32;;;;;;;-141.84;61.85;21307.91;5080699;28;20751;-70
2023/06/08 09:43:47;;;;;;;12.00;10.80;;;;;;;-141.84;62.98;21263.19;5344544;22;20238;-70
2023/06/08 09:46:34;;;;;;;12.02;11.00;;;;;;;-141.84;63.22;21277.41;4989204;28;20195;-70
2023/06/08 09:49:05;;;;;;;11.57;10.45;;;;;;;-141.84;63.35;21244.88;4988771;28;20306;-74
2023/06/08 09:51:36;;;;;;;13.95;12.55;;;;;;;-141.84;64.67;21200.16;4991291;28;20192;-74
2023/06/08 09:54:08;;;;;;;13.68;12.30;;;;;;;-141.84;65.72;21151.34;4990921;28;20194;-74
2023/06/08 09:56:39;;;;;;;14.48;13.32;;;;;;;-141.84;67.47;21090.38;4991330;28;20199;-75
2023/06/08 09:59:12;;;;;;;14.40;13.20;;;;;;;-141.84;67.47;21053.78;4991389;28;20243;-74
2023/06/08 10:01:45;;;;;;;14.35;13.15;;;;;;;-141.84;67.57;21017.19;4990900;28;20223;-74
2023/06/08 10:04:22;;;;;;;14.57;13.18;;;;;;;-141.84;67.87;21015.16;4990631;28;20550;-74
2023/06/08 10:06:56;;;;;;;14.55;13.02;;;;;;;-141.84;67.65;20978.56;4991078;28;20194;-75
2023/06/08 10:09:28;;;;;;;14.90;13.50;;;;;;;-141.84;67.35;21037.50;4971796;28;20207;-75
2023/06/08 10:12:01;;;;;;;13.50;12.25;;;;;;;-141.84;67.72;21074.09;4975506;28;20655;-75
2023/06/08 10:14:30;;;;;;;15.35;13.82;;;;;;;-141.84;68.26;21072.06;4991165;28;20642;-75
2023/06/08 10:17:00;;;;;;;13.98;12.65;;;;;;;-141.84;66.23;21151.34;4991068;28;20203;-74
2023/06/08 10:19:31;;;;;;;12.85;11.70;;;;;;;-141.84;67.39;21147.28;4990914;28;20314;-74
2023/06/08 10:22:01;;;;;;;15.00;13.60;;;;;;;-141.84;67.61;21194.06;4990428;28;20286;-72
2023/06/08 10:24:31;;;;;;;13.82;12.70;;;;;;;-141.84;68.15;21234.72;5001783;28;20643;-77
2023/06/08 10:27:10;;;;;;;14.15;12.88;;;;;;;-141.84;65.95;21267.25;4992529;28;20235;-77
2023/06/08 10:29:39;;;;;;;13.23;12.02;;;;;;;-141.84;65.55;21383.13;4990063;28;20293;-77
2023/06/08 10:32:11;;;;;;;13.40;12.13;;;;;;;-141.84;64.23;21389.22;4991236;28;20211;-77
2023/06/08 10:34:40;;;;;;;12.68;11.55;;;;;;;-141.84;62.71;21458.38;5001451;28;20261;-78
2023/06/08 10:37:28;;;;;;;12.18;11.07;;;;;;;-141.84;62.14;21501.06;5009826;28;20242;-77
2023/06/08 10:39:59;;;;;;;13.00;10.55;;;;;;;-141.84;61.23;21543.75;5001331;28;20566;-78
2023/06/08 10:42:28;;;;;;;11.80;10.60;;;;;;;-141.84;60.63;21539.69;4995224;28;20335;-76
2023/06/08 10:44:57;;;;;;;12.55;11.43;;;;;;;-141.84;59.05;21590.53;4995050;28;20225;-77
2023/06/08 10:47:28;;;;;;;10.82;9.93;;;;;;;-141.84;59.47;21631.19;4994781;28;20586;-78
2023/06/08 10:50:00;;;;;;;12.57;11.38;;;;;;;-141.84;58.87;21704.38;4994834;28;20203;-77
2023/06/08 10:52:29;;;;;;;10.52;9.63;;;;;;;-141.84;58.37;21667.78;4995378;28;20279;-77
2023/06/08 10:55:08;;;;;;;11.35;10.25;;;;;;;-141.84;57.48;21714.56;4994712;28;20286;-78
2023/06/08 10:57:42;;;;;;;13.27;12.07;;;;;;;-141.84;56.82;21667.78;4994687;28;20679;-78
2023/06/08 11:00:42;;;;;;;9.82;8.93;;;;;;;-141.84;58.58;21621.03;4993617;28;20638;-77
2023/06/08 11:03:16;;;;;;;10.52;9.73;;;;;;;-141.84;59.18;21639.31;4981160;28;20200;-79
2023/06/08 11:05:50;;;;;;;10.63;9.57;;;;;;;-141.84;58.87;21641.34;4980497;28;20628;-78
2023/06/08 11:08:18;;;;;;;10.27;9.27;;;;;;;-141.84;59.22;21616.97;4993948;28;20697;-81
2023/06/08 11:10:54;;;;;;;10.38;9.48;;;;;;;-141.84;58.35;21663.72;4997027;28;20294;-78
2023/06/08 11:13:23;;;;;;;12.90;11.70;;;;;;;-141.84;56.94;21716.59;4991580;28;20798;-77
2023/06/08 11:15:52;;;;;;;10.23;9.43;;;;;;;-141.84;55.88;21822.31;4973039;28;20243;-68
2023/06/08 11:18:21;;;;;;;9.52;8.68;;;;;;;-141.84;55.47;21917.91;5001532;28;20286;-71
2023/06/08 11:20:50;;;;;;;11.02;10.02;;;;;;;-141.84;54.86;21934.16;4994282;28;20679;-68